Airfield :
LOGIN :

Register | Disclaimer

   EN    FR    IT 

 










Legend :    VFR   Marginal VFR   IFR   Intensive IFR   Very Intensive IFR
Visi :
Ceiling :
>= 8 km
>= 3000ft
5 to 8 km
1000 to 3000 ft
1500m to 5 km
500 to 1000 ft
800 to 1500m
200 to 500 ft
< 800m
< 200 ft
Symbols :   Thunderstorms  Fog  Heavy snow  Heavy precipitations  Wind > 20 kt
SIGMETs :     Misc.  Thunderstorms  Icing  Turbulence  Mountain Waves  Volcanic Ashes






- Airport Elevation : 390 ft
- IATA code : NQY


EGHQ - Newquay

CURRENT METAR :
  • 242220Z AUTO 35012KT 9999 BKN019/// 03/00 Q1002 RESN

EXPIRED METARs :
  • 242150Z AUTO 35017KT 9999 // BKN012/// OVC044/// 02/01 Q1002
  • 242120Z AUTO 32017KT 9999 BKN026/// 05/M01 Q////
  • 242050Z AUTO 31019KT 9999 OVC025/// 05/00 Q1001
  • 242020Z AUTO 32016KT 9999 OVC036/// 04/M01 Q1001
  • 241950Z AUTO 32019KT 9999 OVC041/// 04/M02 Q1001
  • 241920Z AUTO 33019KT 9999 BKN036/// 04/M03 Q1001

TAF TAF EGHQ
Valid from the 24 at 21:00 until the 25 at 06:00 UTC


241954Z 2421/2506 32022KT 9999 BKN016
TEMPO 2421/2503 7000 SHRA BKN014
PROB30
TEMPO 2421/2422 33025G35KT 3000 +SHRAGS BKN008CB
BECMG 2422/2501 36012KT
BECMG 2503/2506 13004KT
PROB30
TEMPO 2503/2506 7000 SHRA BKN014



MET'MAP, your aeronautical weather chart ! - Copyright ORBIFLY December 2007 - Disclaimer

ORBIFLY MET'MAP TEAM :

Programming & Development : Alexandra Zaïnal
Concept & original design : Baudouin d'Aumeries
Assistance for programming : Marc-Olivier Méhu
Technical & hardware support : Manuel Goepfert

Contact : metmap@orbifly.com




SOURCES & CREDITS :

   NOAA